sensor_id;sensor_type;location;lat;lon;timestamp;P1;durP1;ratioP1;P2;durP2;ratioP2
79011;SDS011;73504;44.734;37.736;2023-12-29T00:00:47;12.20;;;5.97;;
79011;SDS011;73504;44.734;37.736;2023-12-29T00:01:49;10.73;;;5.30;;
79011;SDS011;73504;44.734;37.736;2023-12-29T00:02:50;12.02;;;6.10;;
79011;SDS011;73504;44.734;37.736;2023-12-29T00:03:52;12.15;;;5.80;;
79011;SDS011;73504;44.734;37.736;2023-12-29T00:04:54;10.13;;;5.50;;
79011;SDS011;73504;44.734;37.736;2023-12-29T00:05:55;15.18;;;6.05;;
79011;SDS011;73504;44.734;37.736;2023-12-29T00:06:57;11.63;;;5.47;;
79011;SDS011;73504;44.734;37.736;2023-12-29T00:07:59;10.55;;;5.85;;
79011;SDS011;73504;44.734;37.736;2023-12-29T00:09:00;14.50;;;6.40;;
79011;SDS011;73504;44.734;37.736;2023-12-29T00:10:02;11.95;;;5.45;;
79011;SDS011;73504;44.734;37.736;2023-12-29T00:11:04;11.25;;;5.70;;
79011;SDS011;73504;44.734;37.736;2023-12-29T00:12:06;10.23;;;5.20;;
79011;SDS011;73504;44.734;37.736;2023-12-29T00:13:08;10.77;;;5.22;;
79011;SDS011;73504;44.734;37.736;2023-12-29T00:14:10;11.77;;;5.47;;
79011;SDS011;73504;44.734;37.736;2023-12-29T00:15:12;10.60;;;5.55;;
79011;SDS011;73504;44.734;37.736;2023-12-29T00:16:16;10.23;;;5.53;;
79011;SDS011;73504;44.734;37.736;2023-12-29T00:17:19;12.85;;;5.05;;
79011;SDS011;73504;44.734;37.736;2023-12-29T00:18:20;11.48;;;5.20;;
79011;SDS011;73504;44.734;37.736;2023-12-29T00:19:22;10.02;;;5.05;;
79011;SDS011;73504;44.734;37.736;2023-12-29T00:20:24;9.75;;;5.18;;
79011;SDS011;73504;44.734;37.736;2023-12-29T00:21:25;9.25;;;4.63;;
79011;SDS011;73504;44.734;37.736;2023-12-29T00:22:26;9.98;;;4.88;;
79011;SDS011;73504;44.734;37.736;2023-12-29T00:23:28;11.38;;;4.80;;
79011;SDS011;73504;44.734;37.736;2023-12-29T00:24:29;8.18;;;4.22;;
79011;SDS011;73504;44.734;37.736;2023-12-29T00:25:37;10.60;;;5.00;;
79011;SDS011;73504;44.734;37.736;2023-12-29T00:26:39;10.45;;;4.90;;
79011;SDS011;73504;44.734;37.736;2023-12-29T00:27:41;10.27;;;4.40;;
79011;SDS011;73504;44.734;37.736;2023-12-29T00:28:43;10.93;;;5.68;;
79011;SDS011;73504;44.734;37.736;2023-12-29T00:29:44;9.85;;;5.00;;
79011;SDS011;73504;44.734;37.736;2023-12-29T00:30:46;8.43;;;3.97;;
79011;SDS011;73504;44.734;37.736;2023-12-29T00:31:47;10.02;;;4.07;;
79011;SDS011;73504;44.734;37.736;2023-12-29T00:32:49;9.68;;;4.43;;
79011;SDS011;73504;44.734;37.736;2023-12-29T00:33:50;7.53;;;4.18;;
79011;SDS011;73504;44.734;37.736;2023-12-29T00:34:54;7.82;;;4.10;;
79011;SDS011;73504;44.734;37.736;2023-12-29T00:35:56;10.13;;;3.85;;
79011;SDS011;73504;44.734;37.736;2023-12-29T00:36:59;9.40;;;4.07;;
79011;SDS011;73504;44.734;37.736;2023-12-29T00:38:00;8.98;;;3.53;;
79011;SDS011;73504;44.734;37.736;2023-12-29T00:39:02;7.72;;;3.90;;
79011;SDS011;73504;44.734;37.736;2023-12-29T00:40:03;7.95;;;3.60;;
79011;SDS011;73504;44.734;37.736;2023-12-29T00:41:07;8.30;;;3.70;;
79011;SDS011;73504;44.734;37.736;2023-12-29T00:42:08;7.70;;;4.03;;
79011;SDS011;73504;44.734;37.736;2023-12-29T00:43:10;8.55;;;3.80;;
79011;SDS011;73504;44.734;37.736;2023-12-29T00:44:12;8.93;;;3.70;;
79011;SDS011;73504;44.734;37.736;2023-12-29T00:45:13;7.70;;;3.50;;
79011;SDS011;73504;44.734;37.736;2023-12-29T00:46:15;8.70;;;3.78;;
79011;SDS011;73504;44.734;37.736;2023-12-29T00:47:19;8.10;;;4.03;;
79011;SDS011;73504;44.734;37.736;2023-12-29T00:48:20;8.10;;;4.15;;
79011;SDS011;73504;44.734;37.736;2023-12-29T00:49:22;6.15;;;3.25;;
79011;SDS011;73504;44.734;37.736;2023-12-29T00:50:23;8.93;;;3.42;;
79011;SDS011;73504;44.734;37.736;2023-12-29T00:51:25;8.40;;;3.78;;
79011;SDS011;73504;44.734;37.736;2023-12-29T00:52:27;8.02;;;3.45;;
79011;SDS011;73504;44.734;37.736;2023-12-29T00:53:29;6.38;;;3.10;;
79011;SDS011;73504;44.734;37.736;2023-12-29T00:54:32;9.30;;;3.45;;
79011;SDS011;73504;44.734;37.736;2023-12-29T00:55:34;7.88;;;2.92;;
79011;SDS011;73504;44.734;37.736;2023-12-29T00:56:35;8.00;;;3.45;;
79011;SDS011;73504;44.734;37.736;2023-12-29T00:57:37;6.70;;;3.28;;
79011;SDS011;73504;44.734;37.736;2023-12-29T00:58:38;6.30;;;2.85;;
79011;SDS011;73504;44.734;37.736;2023-12-29T00:59:40;7.25;;;3.03;;
79011;SDS011;73504;44.734;37.736;2023-12-29T01:00:42;8.40;;;3.35;;
79011;SDS011;73504;44.734;37.736;2023-12-29T01:01:44;7.25;;;3.47;;
79011;SDS011;73504;44.734;37.736;2023-12-29T01:02:45;8.45;;;3.35;;
79011;SDS011;73504;44.734;37.736;2023-12-29T01:03:47;8.07;;;3.50;;
79011;SDS011;73504;44.734;37.736;2023-12-29T01:04:48;8.98;;;3.00;;
79011;SDS011;73504;44.734;37.736;2023-12-29T01:05:49;6.20;;;3.20;;
79011;SDS011;73504;44.734;37.736;2023-12-29T01:06:51;6.25;;;2.80;;
79011;SDS011;73504;44.734;37.736;2023-12-29T01:07:54;6.60;;;2.78;;
79011;SDS011;73504;44.734;37.736;2023-12-29T01:08:56;7.43;;;2.75;;
79011;SDS011;73504;44.734;37.736;2023-12-29T01:09:58;7.50;;;3.42;;
79011;SDS011;73504;44.734;37.736;2023-12-29T01:11:00;6.53;;;2.50;;
79011;SDS011;73504;44.734;37.736;2023-12-29T01:12:01;8.45;;;3.10;;
79011;SDS011;73504;44.734;37.736;2023-12-29T01:13:03;6.85;;;2.75;;
79011;SDS011;73504;44.734;37.736;2023-12-29T01:14:05;7.32;;;3.15;;
79011;SDS011;73504;44.734;37.736;2023-12-29T01:15:07;5.90;;;2.42;;
79011;SDS011;73504;44.734;37.736;2023-12-29T01:16:09;7.22;;;3.00;;
79011;SDS011;73504;44.734;37.736;2023-12-29T01:17:10;8.45;;;3.05;;
79011;SDS011;73504;44.734;37.736;2023-12-29T01:18:12;6.68;;;2.28;;
79011;SDS011;73504;44.734;37.736;2023-12-29T01:19:15;6.72;;;2.63;;
79011;SDS011;73504;44.734;37.736;2023-12-29T01:20:16;6.90;;;2.75;;
79011;SDS011;73504;44.734;37.736;2023-12-29T01:21:18;5.32;;;2.63;;
79011;SDS011;73504;44.734;37.736;2023-12-29T01:22:19;7.65;;;2.42;;
79011;SDS011;73504;44.734;37.736;2023-12-29T01:23:22;8.70;;;3.17;;
79011;SDS011;73504;44.734;37.736;2023-12-29T01:24:24;5.50;;;2.83;;
79011;SDS011;73504;44.734;37.736;2023-12-29T01:25:25;6.00;;;2.13;;
79011;SDS011;73504;44.734;37.736;2023-12-29T01:26:27;6.93;;;2.70;;
79011;SDS011;73504;44.734;37.736;2023-12-29T01:27:30;6.38;;;2.45;;
79011;SDS011;73504;44.734;37.736;2023-12-29T01:28:32;8.20;;;2.65;;
79011;SDS011;73504;44.734;37.736;2023-12-29T01:29:33;6.97;;;2.55;;
79011;SDS011;73504;44.734;37.736;2023-12-29T01:30:35;5.82;;;2.33;;
79011;SDS011;73504;44.734;37.736;2023-12-29T01:31:36;7.35;;;2.92;;
79011;SDS011;73504;44.734;37.736;2023-12-29T01:32:38;5.05;;;2.20;;
79011;SDS011;73504;44.734;37.736;2023-12-29T01:33:39;7.57;;;2.60;;
79011;SDS011;73504;44.734;37.736;2023-12-29T01:34:40;5.95;;;2.60;;
79011;SDS011;73504;44.734;37.736;2023-12-29T01:35:42;7.28;;;3.08;;
79011;SDS011;73504;44.734;37.736;2023-12-29T01:36:43;6.32;;;2.13;;
79011;SDS011;73504;44.734;37.736;2023-12-29T01:37:44;5.28;;;2.30;;
79011;SDS011;73504;44.734;37.736;2023-12-29T01:38:46;6.45;;;2.22;;
79011;SDS011;73504;44.734;37.736;2023-12-29T01:39:47;5.78;;;2.10;;
79011;SDS011;73504;44.734;37.736;2023-12-29T01:40:49;5.68;;;2.38;;
79011;SDS011;73504;44.734;37.736;2023-12-29T01:41:50;7.30;;;2.30;;
79011;SDS011;73504;44.734;37.736;2023-12-29T01:42:51;5.88;;;2.38;;
79011;SDS011;73504;44.734;37.736;2023-12-29T01:44:57;6.30;;;2.15;;
79011;SDS011;73504;44.734;37.736;2023-12-29T01:45:59;6.75;;;2.20;;
79011;SDS011;73504;44.734;37.736;2023-12-29T01:47:00;7.20;;;2.60;;
79011;SDS011;73504;44.734;37.736;2023-12-29T01:48:02;5.70;;;1.95;;
79011;SDS011;73504;44.734;37.736;2023-12-29T01:49:04;5.25;;;1.85;;
79011;SDS011;73504;44.734;37.736;2023-12-29T01:50:05;5.15;;;1.98;;
79011;SDS011;73504;44.734;37.736;2023-12-29T01:51:07;8.23;;;2.25;;
79011;SDS011;73504;44.734;37.736;2023-12-29T01:52:08;4.82;;;2.05;;
79011;SDS011;73504;44.734;37.736;2023-12-29T01:53:10;5.65;;;1.90;;
79011;SDS011;73504;44.734;37.736;2023-12-29T01:54:12;4.38;;;2.05;;
79011;SDS011;73504;44.734;37.736;2023-12-29T01:55:17;5.65;;;1.73;;
79011;SDS011;73504;44.734;37.736;2023-12-29T01:56:23;4.95;;;1.92;;
79011;SDS011;73504;44.734;37.736;2023-12-29T01:57:25;5.35;;;1.95;;
79011;SDS011;73504;44.734;37.736;2023-12-29T01:58:27;4.85;;;1.90;;
79011;SDS011;73504;44.734;37.736;2023-12-29T01:59:28;5.95;;;1.85;;
79011;SDS011;73504;44.734;37.736;2023-12-29T02:00:32;6.50;;;1.98;;
79011;SDS011;73504;44.734;37.736;2023-12-29T02:01:35;6.20;;;2.83;;
79011;SDS011;73504;44.734;37.736;2023-12-29T02:02:39;6.03;;;2.10;;
79011;SDS011;73504;44.734;37.736;2023-12-29T02:03:41;5.05;;;2.17;;
79011;SDS011;73504;44.734;37.736;2023-12-29T02:04:43;4.05;;;1.77;;
79011;SDS011;73504;44.734;37.736;2023-12-29T02:05:45;5.50;;;2.00;;
79011;SDS011;73504;44.734;37.736;2023-12-29T02:06:48;5.40;;;1.73;;
79011;SDS011;73504;44.734;37.736;2023-12-29T02:07:50;6.07;;;1.90;;
79011;SDS011;73504;44.734;37.736;2023-12-29T02:08:52;5.75;;;2.22;;
79011;SDS011;73504;44.734;37.736;2023-12-29T02:09:54;5.68;;;1.70;;
79011;SDS011;73504;44.734;37.736;2023-12-29T02:10:55;4.60;;;1.77;;
79011;SDS011;73504;44.734;37.736;2023-12-29T02:11:57;5.22;;;1.70;;
79011;SDS011;73504;44.734;37.736;2023-12-29T02:12:58;4.80;;;1.88;;
79011;SDS011;73504;44.734;37.736;2023-12-29T02:14:01;9.02;;;2.33;;
79011;SDS011;73504;44.734;37.736;2023-12-29T02:15:03;3.97;;;1.80;;
79011;SDS011;73504;44.734;37.736;2023-12-29T02:16:07;5.25;;;1.90;;
79011;SDS011;73504;44.734;37.736;2023-12-29T02:17:35;4.35;;;1.55;;
79011;SDS011;73504;44.734;37.736;2023-12-29T02:18:49;4.80;;;1.60;;
79011;SDS011;73504;44.734;37.736;2023-12-29T02:19:51;6.05;;;1.90;;
79011;SDS011;73504;44.734;37.736;2023-12-29T02:20:54;6.97;;;1.98;;
79011;SDS011;73504;44.734;37.736;2023-12-29T02:21:55;6.03;;;1.85;;
79011;SDS011;73504;44.734;37.736;2023-12-29T02:22:57;4.28;;;1.50;;
79011;SDS011;73504;44.734;37.736;2023-12-29T02:23:58;4.53;;;1.65;;
79011;SDS011;73504;44.734;37.736;2023-12-29T02:25:00;5.63;;;1.67;;
79011;SDS011;73504;44.734;37.736;2023-12-29T02:26:05;5.22;;;2.00;;
79011;SDS011;73504;44.734;37.736;2023-12-29T02:28:27;4.82;;;2.30;;
79011;SDS011;73504;44.734;37.736;2023-12-29T02:29:28;5.60;;;1.73;;
79011;SDS011;73504;44.734;37.736;2023-12-29T02:31:45;4.32;;;1.80;;
79011;SDS011;73504;44.734;37.736;2023-12-29T02:32:54;3.55;;;1.80;;
79011;SDS011;73504;44.734;37.736;2023-12-29T02:34:00;4.88;;;1.58;;
79011;SDS011;73504;44.734;37.736;2023-12-29T02:35:04;5.38;;;1.85;;
79011;SDS011;73504;44.734;37.736;2023-12-29T02:36:08;5.32;;;2.03;;
79011;SDS011;73504;44.734;37.736;2023-12-29T02:37:14;4.38;;;1.65;;
79011;SDS011;73504;44.734;37.736;2023-12-29T02:38:16;5.65;;;1.50;;
79011;SDS011;73504;44.734;37.736;2023-12-29T02:39:17;3.80;;;1.50;;
79011;SDS011;73504;44.734;37.736;2023-12-29T02:40:19;4.88;;;1.77;;
79011;SDS011;73504;44.734;37.736;2023-12-29T02:41:21;4.03;;;1.52;;
79011;SDS011;73504;44.734;37.736;2023-12-29T02:42:23;4.57;;;1.50;;
79011;SDS011;73504;44.734;37.736;2023-12-29T02:43:25;5.22;;;1.52;;
79011;SDS011;73504;44.734;37.736;2023-12-29T02:44:26;4.00;;;1.60;;
79011;SDS011;73504;44.734;37.736;2023-12-29T02:45:28;4.38;;;1.70;;
79011;SDS011;73504;44.734;37.736;2023-12-29T02:46:30;5.07;;;1.60;;
79011;SDS011;73504;44.734;37.736;2023-12-29T02:47:31;5.13;;;1.60;;
79011;SDS011;73504;44.734;37.736;2023-12-29T02:48:33;5.00;;;1.50;;
79011;SDS011;73504;44.734;37.736;2023-12-29T02:49:35;3.88;;;1.48;;
79011;SDS011;73504;44.734;37.736;2023-12-29T02:50:38;3.13;;;1.25;;
79011;SDS011;73504;44.734;37.736;2023-12-29T02:51:39;3.95;;;1.50;;
79011;SDS011;73504;44.734;37.736;2023-12-29T02:52:41;3.53;;;1.42;;
79011;SDS011;73504;44.734;37.736;2023-12-29T02:53:43;5.43;;;1.40;;
79011;SDS011;73504;44.734;37.736;2023-12-29T02:54:45;5.63;;;2.35;;
79011;SDS011;73504;44.734;37.736;2023-12-29T02:55:47;4.63;;;1.55;;
79011;SDS011;73504;44.734;37.736;2023-12-29T02:56:48;4.03;;;1.50;;
79011;SDS011;73504;44.734;37.736;2023-12-29T02:57:50;4.47;;;2.00;;
79011;SDS011;73504;44.734;37.736;2023-12-29T02:58:51;6.03;;;1.58;;
79011;SDS011;73504;44.734;37.736;2023-12-29T02:59:53;4.82;;;1.40;;
79011;SDS011;73504;44.734;37.736;2023-12-29T03:00:55;6.95;;;2.08;;
79011;SDS011;73504;44.734;37.736;2023-12-29T03:01:57;4.15;;;1.70;;
79011;SDS011;73504;44.734;37.736;2023-12-29T03:02:58;5.10;;;1.95;;
79011;SDS011;73504;44.734;37.736;2023-12-29T03:04:00;6.07;;;1.58;;
79011;SDS011;73504;44.734;37.736;2023-12-29T03:05:02;4.10;;;1.60;;
79011;SDS011;73504;44.734;37.736;2023-12-29T03:06:04;5.43;;;1.48;;
79011;SDS011;73504;44.734;37.736;2023-12-29T03:07:07;3.58;;;1.35;;
79011;SDS011;73504;44.734;37.736;2023-12-29T03:08:09;5.32;;;1.52;;
79011;SDS011;73504;44.734;37.736;2023-12-29T03:09:11;4.72;;;1.50;;
79011;SDS011;73504;44.734;37.736;2023-12-29T03:10:12;3.85;;;1.20;;
79011;SDS011;73504;44.734;37.736;2023-12-29T03:11:14;4.05;;;1.55;;
79011;SDS011;73504;44.734;37.736;2023-12-29T03:12:16;3.88;;;1.58;;
79011;SDS011;73504;44.734;37.736;2023-12-29T03:13:17;4.55;;;1.58;;
79011;SDS011;73504;44.734;37.736;2023-12-29T03:14:19;5.07;;;1.60;;
79011;SDS011;73504;44.734;37.736;2023-12-29T03:15:21;5.07;;;1.50;;
79011;SDS011;73504;44.734;37.736;2023-12-29T03:16:23;4.22;;;1.42;;
79011;SDS011;73504;44.734;37.736;2023-12-29T03:17:25;4.45;;;1.40;;
79011;SDS011;73504;44.734;37.736;2023-12-29T03:18:26;4.60;;;1.27;;
79011;SDS011;73504;44.734;37.736;2023-12-29T03:19:28;4.55;;;1.20;;
79011;SDS011;73504;44.734;37.736;2023-12-29T03:20:30;5.22;;;1.50;;
79011;SDS011;73504;44.734;37.736;2023-12-29T03:21:34;4.45;;;1.60;;
79011;SDS011;73504;44.734;37.736;2023-12-29T03:22:36;4.00;;;1.30;;
79011;SDS011;73504;44.734;37.736;2023-12-29T03:23:37;6.25;;;1.58;;
79011;SDS011;73504;44.734;37.736;2023-12-29T03:24:41;3.78;;;1.35;;
79011;SDS011;73504;44.734;37.736;2023-12-29T03:25:45;4.43;;;1.50;;
79011;SDS011;73504;44.734;37.736;2023-12-29T03:26:46;5.57;;;1.40;;
79011;SDS011;73504;44.734;37.736;2023-12-29T03:27:48;4.85;;;1.95;;
79011;SDS011;73504;44.734;37.736;2023-12-29T03:28:50;5.35;;;1.30;;
79011;SDS011;73504;44.734;37.736;2023-12-29T03:29:51;4.18;;;1.17;;
79011;SDS011;73504;44.734;37.736;2023-12-29T03:30:52;4.63;;;1.50;;
79011;SDS011;73504;44.734;37.736;2023-12-29T03:31:54;5.47;;;1.83;;
79011;SDS011;73504;44.734;37.736;2023-12-29T03:32:55;4.60;;;1.33;;
79011;SDS011;73504;44.734;37.736;2023-12-29T03:33:56;3.60;;;1.35;;
79011;SDS011;73504;44.734;37.736;2023-12-29T03:34:58;3.78;;;1.42;;
79011;SDS011;73504;44.734;37.736;2023-12-29T03:36:01;7.25;;;1.30;;
79011;SDS011;73504;44.734;37.736;2023-12-29T03:37:02;4.03;;;1.30;;
79011;SDS011;73504;44.734;37.736;2023-12-29T03:38:03;4.05;;;1.52;;
79011;SDS011;73504;44.734;37.736;2023-12-29T03:39:05;3.20;;;1.35;;
79011;SDS011;73504;44.734;37.736;2023-12-29T03:40:07;4.38;;;1.40;;
79011;SDS011;73504;44.734;37.736;2023-12-29T03:41:08;3.85;;;1.42;;
79011;SDS011;73504;44.734;37.736;2023-12-29T03:42:10;4.32;;;1.33;;
79011;SDS011;73504;44.734;37.736;2023-12-29T03:43:11;4.90;;;2.10;;
79011;SDS011;73504;44.734;37.736;2023-12-29T03:44:13;3.28;;;1.27;;
79011;SDS011;73504;44.734;37.736;2023-12-29T03:45:14;5.43;;;1.70;;
79011;SDS011;73504;44.734;37.736;2023-12-29T03:46:19;3.45;;;1.27;;
79011;SDS011;73504;44.734;37.736;2023-12-29T03:47:21;3.42;;;1.25;;
79011;SDS011;73504;44.734;37.736;2023-12-29T03:48:23;5.95;;;1.50;;
79011;SDS011;73504;44.734;37.736;2023-12-29T03:49:24;3.55;;;1.40;;
79011;SDS011;73504;44.734;37.736;2023-12-29T03:50:26;6.65;;;1.40;;
79011;SDS011;73504;44.734;37.736;2023-12-29T03:51:27;3.95;;;1.25;;
79011;SDS011;73504;44.734;37.736;2023-12-29T03:52:28;5.88;;;1.70;;
79011;SDS011;73504;44.734;37.736;2023-12-29T03:53:30;5.93;;;1.60;;
79011;SDS011;73504;44.734;37.736;2023-12-29T03:54:31;3.70;;;1.65;;
79011;SDS011;73504;44.734;37.736;2023-12-29T03:55:33;4.05;;;1.50;;
79011;SDS011;73504;44.734;37.736;2023-12-29T03:56:34;4.40;;;1.40;;
79011;SDS011;73504;44.734;37.736;2023-12-29T03:57:36;3.72;;;1.35;;
79011;SDS011;73504;44.734;37.736;2023-12-29T03:58:37;3.75;;;1.40;;
79011;SDS011;73504;44.734;37.736;2023-12-29T03:59:39;5.43;;;1.40;;
79011;SDS011;73504;44.734;37.736;2023-12-29T04:00:41;3.17;;;1.10;;
79011;SDS011;73504;44.734;37.736;2023-12-29T04:01:44;3.58;;;1.10;;
79011;SDS011;73504;44.734;37.736;2023-12-29T04:02:45;4.45;;;1.52;;
79011;SDS011;73504;44.734;37.736;2023-12-29T04:03:47;4.47;;;1.45;;
79011;SDS011;73504;44.734;37.736;2023-12-29T04:04:48;3.70;;;1.45;;
79011;SDS011;73504;44.734;37.736;2023-12-29T04:05:50;3.95;;;1.38;;
79011;SDS011;73504;44.734;37.736;2023-12-29T04:06:51;4.13;;;1.38;;
79011;SDS011;73504;44.734;37.736;2023-12-29T04:07:52;4.53;;;1.45;;
79011;SDS011;73504;44.734;37.736;2023-12-29T04:08:54;4.57;;;1.48;;
79011;SDS011;73504;44.734;37.736;2023-12-29T04:09:55;5.72;;;1.45;;
79011;SDS011;73504;44.734;37.736;2023-12-29T04:10:57;3.38;;;1.30;;
79011;SDS011;73504;44.734;37.736;2023-12-29T04:11:58;7.40;;;1.40;;
79011;SDS011;73504;44.734;37.736;2023-12-29T04:12:59;6.70;;;1.63;;
79011;SDS011;73504;44.734;37.736;2023-12-29T04:14:02;3.95;;;1.40;;
79011;SDS011;73504;44.734;37.736;2023-12-29T04:15:03;4.43;;;1.23;;
79011;SDS011;73504;44.734;37.736;2023-12-29T04:16:08;7.07;;;2.17;;
79011;SDS011;73504;44.734;37.736;2023-12-29T04:17:09;4.35;;;1.50;;
79011;SDS011;73504;44.734;37.736;2023-12-29T04:18:17;4.50;;;1.50;;
79011;SDS011;73504;44.734;37.736;2023-12-29T04:19:19;5.38;;;1.20;;
79011;SDS011;73504;44.734;37.736;2023-12-29T04:20:21;4.13;;;1.40;;
79011;SDS011;73504;44.734;37.736;2023-12-29T04:21:22;4.40;;;1.30;;
79011;SDS011;73504;44.734;37.736;2023-12-29T04:22:23;3.55;;;1.80;;
79011;SDS011;73504;44.734;37.736;2023-12-29T04:23:25;4.45;;;1.55;;
79011;SDS011;73504;44.734;37.736;2023-12-29T04:24:26;5.25;;;1.45;;
79011;SDS011;73504;44.734;37.736;2023-12-29T04:25:28;4.07;;;1.42;;
79011;SDS011;73504;44.734;37.736;2023-12-29T04:26:35;3.42;;;1.10;;
79011;SDS011;73504;44.734;37.736;2023-12-29T04:27:40;3.75;;;1.30;;
79011;SDS011;73504;44.734;37.736;2023-12-29T04:28:42;4.47;;;1.30;;
79011;SDS011;73504;44.734;37.736;2023-12-29T04:29:44;5.72;;;1.60;;
79011;SDS011;73504;44.734;37.736;2023-12-29T04:30:46;4.20;;;1.30;;
79011;SDS011;73504;44.734;37.736;2023-12-29T04:31:47;4.60;;;1.67;;
79011;SDS011;73504;44.734;37.736;2023-12-29T04:32:49;5.03;;;1.30;;
79011;SDS011;73504;44.734;37.736;2023-12-29T04:33:53;4.60;;;1.52;;
79011;SDS011;73504;44.734;37.736;2023-12-29T04:34:54;4.45;;;1.42;;
79011;SDS011;73504;44.734;37.736;2023-12-29T04:35:55;4.85;;;1.40;;
79011;SDS011;73504;44.734;37.736;2023-12-29T04:36:57;5.07;;;1.30;;
79011;SDS011;73504;44.734;37.736;2023-12-29T04:37:58;3.75;;;1.15;;
79011;SDS011;73504;44.734;37.736;2023-12-29T04:39:00;4.95;;;1.52;;
79011;SDS011;73504;44.734;37.736;2023-12-29T04:40:01;3.60;;;1.30;;
79011;SDS011;73504;44.734;37.736;2023-12-29T04:41:02;4.90;;;1.20;;
79011;SDS011;73504;44.734;37.736;2023-12-29T04:42:04;6.18;;;1.38;;
79011;SDS011;73504;44.734;37.736;2023-12-29T04:43:05;5.65;;;1.38;;
79011;SDS011;73504;44.734;37.736;2023-12-29T04:44:07;3.95;;;1.20;;
79011;SDS011;73504;44.734;37.736;2023-12-29T04:45:09;4.82;;;1.40;;
79011;SDS011;73504;44.734;37.736;2023-12-29T04:46:11;5.60;;;1.20;;
79011;SDS011;73504;44.734;37.736;2023-12-29T04:47:12;7.47;;;1.52;;
79011;SDS011;73504;44.734;37.736;2023-12-29T04:48:13;4.70;;;1.30;;
79011;SDS011;73504;44.734;37.736;2023-12-29T04:49:15;4.30;;;1.48;;
79011;SDS011;73504;44.734;37.736;2023-12-29T04:50:16;5.97;;;1.75;;
79011;SDS011;73504;44.734;37.736;2023-12-29T04:51:18;3.97;;;1.30;;
79011;SDS011;73504;44.734;37.736;2023-12-29T04:52:19;3.92;;;1.23;;
79011;SDS011;73504;44.734;37.736;2023-12-29T04:53:20;3.88;;;1.30;;
79011;SDS011;73504;44.734;37.736;2023-12-29T04:54:23;5.82;;;1.67;;
79011;SDS011;73504;44.734;37.736;2023-12-29T04:55:25;4.05;;;1.35;;
79011;SDS011;73504;44.734;37.736;2023-12-29T04:56:26;3.10;;;1.58;;
79011;SDS011;73504;44.734;37.736;2023-12-29T04:57:28;4.13;;;1.55;;
79011;SDS011;73504;44.734;37.736;2023-12-29T04:58:29;3.75;;;1.23;;
79011;SDS011;73504;44.734;37.736;2023-12-29T04:59:30;4.75;;;1.40;;
79011;SDS011;73504;44.734;37.736;2023-12-29T05:00:32;3.88;;;1.30;;
79011;SDS011;73504;44.734;37.736;2023-12-29T05:01:33;4.55;;;1.17;;
79011;SDS011;73504;44.734;37.736;2023-12-29T05:02:35;5.50;;;1.25;;
79011;SDS011;73504;44.734;37.736;2023-12-29T05:03:36;3.92;;;1.33;;
79011;SDS011;73504;44.734;37.736;2023-12-29T05:04:38;4.15;;;1.30;;
79011;SDS011;73504;44.734;37.736;2023-12-29T05:05:39;4.82;;;1.52;;
79011;SDS011;73504;44.734;37.736;2023-12-29T05:06:40;5.03;;;1.40;;
79011;SDS011;73504;44.734;37.736;2023-12-29T05:07:42;4.13;;;1.33;;
79011;SDS011;73504;44.734;37.736;2023-12-29T05:08:43;5.75;;;1.20;;
79011;SDS011;73504;44.734;37.736;2023-12-29T05:09:45;4.78;;;1.70;;
79011;SDS011;73504;44.734;37.736;2023-12-29T05:10:46;7.03;;;2.05;;
79011;SDS011;73504;44.734;37.736;2023-12-29T05:11:47;11.82;;;2.42;;
79011;SDS011;73504;44.734;37.736;2023-12-29T05:12:49;2.85;;;1.15;;
79011;SDS011;73504;44.734;37.736;2023-12-29T05:13:50;4.57;;;1.38;;
79011;SDS011;73504;44.734;37.736;2023-12-29T05:14:52;5.63;;;1.42;;
79011;SDS011;73504;44.734;37.736;2023-12-29T05:15:53;3.70;;;1.20;;
79011;SDS011;73504;44.734;37.736;2023-12-29T05:16:54;4.70;;;1.50;;
79011;SDS011;73504;44.734;37.736;2023-12-29T05:17:56;7.28;;;1.67;;
79011;SDS011;73504;44.734;37.736;2023-12-29T05:18:57;6.75;;;1.80;;
79011;SDS011;73504;44.734;37.736;2023-12-29T05:19:59;6.18;;;1.70;;
79011;SDS011;73504;44.734;37.736;2023-12-29T05:21:00;5.88;;;1.50;;
79011;SDS011;73504;44.734;37.736;2023-12-29T05:22:02;4.28;;;1.35;;
79011;SDS011;73504;44.734;37.736;2023-12-29T05:23:04;7.95;;;2.38;;
79011;SDS011;73504;44.734;37.736;2023-12-29T05:24:06;3.80;;;1.20;;
79011;SDS011;73504;44.734;37.736;2023-12-29T05:25:07;9.60;;;2.00;;
79011;SDS011;73504;44.734;37.736;2023-12-29T05:26:09;3.65;;;1.30;;
79011;SDS011;73504;44.734;37.736;2023-12-29T05:27:11;4.72;;;1.50;;
79011;SDS011;73504;44.734;37.736;2023-12-29T05:28:12;4.13;;;1.17;;
79011;SDS011;73504;44.734;37.736;2023-12-29T05:29:14;4.18;;;1.30;;
79011;SDS011;73504;44.734;37.736;2023-12-29T05:30:16;6.68;;;1.80;;
79011;SDS011;73504;44.734;37.736;2023-12-29T05:31:18;5.07;;;1.42;;
79011;SDS011;73504;44.734;37.736;2023-12-29T05:32:19;4.53;;;1.60;;
79011;SDS011;73504;44.734;37.736;2023-12-29T05:33:21;7.03;;;1.58;;
79011;SDS011;73504;44.734;37.736;2023-12-29T05:34:23;3.35;;;1.30;;
79011;SDS011;73504;44.734;37.736;2023-12-29T05:35:24;3.75;;;1.10;;
79011;SDS011;73504;44.734;37.736;2023-12-29T05:36:26;4.65;;;1.30;;
79011;SDS011;73504;44.734;37.736;2023-12-29T05:37:27;5.05;;;1.58;;
79011;SDS011;73504;44.734;37.736;2023-12-29T05:38:29;6.13;;;1.55;;
79011;SDS011;73504;44.734;37.736;2023-12-29T05:39:32;5.97;;;1.40;;
79011;SDS011;73504;44.734;37.736;2023-12-29T05:40:34;5.00;;;1.85;;
79011;SDS011;73504;44.734;37.736;2023-12-29T05:41:36;4.60;;;1.50;;
79011;SDS011;73504;44.734;37.736;2023-12-29T05:42:37;4.80;;;1.50;;
79011;SDS011;73504;44.734;37.736;2023-12-29T05:43:39;5.03;;;1.50;;
79011;SDS011;73504;44.734;37.736;2023-12-29T05:44:41;6.20;;;1.30;;
79011;SDS011;73504;44.734;37.736;2023-12-29T05:45:42;4.88;;;1.38;;
79011;SDS011;73504;44.734;37.736;2023-12-29T05:46:47;4.70;;;1.15;;
79011;SDS011;73504;44.734;37.736;2023-12-29T05:47:49;4.90;;;1.80;;
79011;SDS011;73504;44.734;37.736;2023-12-29T05:48:50;5.65;;;1.30;;
79011;SDS011;73504;44.734;37.736;2023-12-29T05:49:55;5.60;;;1.58;;
79011;SDS011;73504;44.734;37.736;2023-12-29T05:50:57;9.00;;;1.67;;
79011;SDS011;73504;44.734;37.736;2023-12-29T05:51:58;5.38;;;1.45;;
79011;SDS011;73504;44.734;37.736;2023-12-29T05:53:00;6.60;;;1.73;;
79011;SDS011;73504;44.734;37.736;2023-12-29T05:54:02;4.13;;;1.52;;
79011;SDS011;73504;44.734;37.736;2023-12-29T05:55:04;3.97;;;1.08;;
79011;SDS011;73504;44.734;37.736;2023-12-29T05:56:06;5.10;;;1.45;;
79011;SDS011;73504;44.734;37.736;2023-12-29T05:57:08;4.85;;;1.50;;
79011;SDS011;73504;44.734;37.736;2023-12-29T05:58:09;4.30;;;1.50;;
79011;SDS011;73504;44.734;37.736;2023-12-29T05:59:11;4.00;;;1.52;;
79011;SDS011;73504;44.734;37.736;2023-12-29T06:00:13;4.03;;;1.38;;
79011;SDS011;73504;44.734;37.736;2023-12-29T06:01:15;3.58;;;1.27;;
79011;SDS011;73504;44.734;37.736;2023-12-29T06:02:17;4.57;;;1.30;;
79011;SDS011;73504;44.734;37.736;2023-12-29T06:03:19;4.63;;;1.40;;
79011;SDS011;73504;44.734;37.736;2023-12-29T06:04:20;4.95;;;1.88;;
79011;SDS011;73504;44.734;37.736;2023-12-29T06:05:22;4.43;;;1.60;;
79011;SDS011;73504;44.734;37.736;2023-12-29T06:06:24;4.50;;;1.40;;
79011;SDS011;73504;44.734;37.736;2023-12-29T06:07:26;5.70;;;1.40;;
79011;SDS011;73504;44.734;37.736;2023-12-29T06:08:27;3.75;;;1.38;;
79011;SDS011;73504;44.734;37.736;2023-12-29T06:09:29;2.92;;;1.10;;
79011;SDS011;73504;44.734;37.736;2023-12-29T06:10:31;3.92;;;1.25;;
79011;SDS011;73504;44.734;37.736;2023-12-29T06:11:33;4.53;;;1.27;;